Time;durP1;ratioP1;P1;durP2;ratioP2;P2;SDS_P1;SDS_P2;PMS_P1;PMS_P2;Temp;Humidity;BMP_temperature;BMP_pressure;BME280_temperature;BME280_humidity;BME280_pressure;Samples;Min_cycle;Max_cycle;Signal;HPM_P1;HPM_P2
2021/05/22 00:02:04;;;;;;;1.45;0.60;;;;;;;11.07;56.77;99492.03;4876825;28;20075;-88
2021/05/22 00:04:32;;;;;;;5.55;0.85;;;;;;;11.09;57.14;99487.63;4846048;28;20047;-89
2021/05/22 00:07:04;;;;;;;2.00;0.90;;;;;;;11.12;57.20;99481.44;4918738;28;20174;-89
2021/05/22 00:09:36;;;;;;;5.15;0.50;;;;;;;11.14;57.41;99473.53;4910260;28;20051;-89
2021/05/22 00:12:04;;;;;;;2.28;0.43;;;;;;;11.12;56.73;99476.19;4843829;28;20075;-90
2021/05/22 00:14:33;;;;;;;1.33;0.80;;;;;;;11.12;56.99;99484.03;4838411;29;20621;-89
2021/05/22 00:19:46;;;;;;;0.85;0.47;;;;;;;11.10;57.14;99483.22;4778456;29;20054;-88
2021/05/22 00:27:41;;;;;;;1.25;0.55;;;;;;;11.11;56.92;99484.06;5010374;27;20710;-82
2021/05/22 00:30:14;;;;;;;1.85;0.70;;;;;;;11.10;56.63;99477.97;4991413;28;20049;-82
2021/05/22 00:32:45;;;;;;;4.65;0.35;;;;;;;11.08;56.95;99471.91;5032215;28;20045;-82
2021/05/22 00:35:14;;;;;;;1.38;0.45;;;;;;;11.06;56.51;99469.34;5028714;28;20107;-82
2021/05/22 00:37:41;;;;;;;2.60;0.80;;;;;;;11.02;57.11;99459.03;5005810;28;20089;-82
2021/05/22 00:40:22;;;;;;;1.88;0.70;;;;;;;11.00;57.05;99476.53;5019161;28;20049;-83
2021/05/22 00:42:50;;;;;;;2.30;0.73;;;;;;;10.94;57.02;99474.97;4985247;28;20767;-83
2021/05/22 00:45:21;;;;;;;2.05;0.50;;;;;;;10.87;57.12;99470.81;4998556;28;20095;-82
2021/05/22 00:47:58;;;;;;;2.95;0.35;;;;;;;10.80;57.14;99474.53;4967338;28;20044;-84
2021/05/22 00:50:38;;;;;;;4.05;0.35;;;;;;;10.71;57.40;99470.41;4868152;28;20147;-83
2021/05/22 00:53:15;;;;;;;1.15;0.80;;;;;;;10.59;57.76;99476.84;4974100;28;20061;-82
2021/05/22 00:55:43;;;;;;;2.90;1.17;;;;;;;10.50;58.35;99484.94;4977583;28;20058;-84
2021/05/22 00:58:14;;;;;;;1.75;0.85;;;;;;;10.41;58.28;99491.28;4989554;28;20391;-84
2021/05/22 01:00:45;;;;;;;1.95;0.50;;;;;;;10.30;58.83;99488.03;5012011;28;20069;-83
2021/05/22 01:03:26;;;;;;;3.25;0.77;;;;;;;10.18;59.55;99477.03;4989364;28;21557;-84
2021/05/22 01:06:19;;;;;;;0.70;0.60;;;;;;;10.10;60.14;99481.59;4968686;28;20078;-83
2021/05/22 01:08:50;;;;;;;1.27;1.00;;;;;;;10.04;60.66;99477.38;4989346;28;20048;-84
2021/05/22 01:11:24;;;;;;;1.08;0.20;;;;;;;10.00;60.59;99477.47;4979102;28;20074;-83
2021/05/22 01:14:18;;;;;;;4.63;0.70;;;;;;;9.96;61.05;99473.25;4997320;28;24277;-83
2021/05/22 01:16:46;;;;;;;1.35;0.47;;;;;;;9.94;61.13;99476.75;4961301;28;20119;-84
2021/05/22 01:19:37;;;;;;;0.98;0.63;;;;;;;9.92;61.24;99467.22;4994329;28;20047;-84
2021/05/22 01:22:05;;;;;;;2.10;0.60;;;;;;;9.88;61.07;99468.19;4984030;28;20405;-84
2021/05/22 01:24:50;;;;;;;1.90;0.80;;;;;;;9.90;61.75;99476.88;4975318;28;20085;-84
2021/05/22 01:27:18;;;;;;;2.08;0.75;;;;;;;9.86;61.44;99468.25;4963302;28;20893;-82
2021/05/22 01:29:46;;;;;;;0.90;0.80;;;;;;;9.83;61.66;99462.22;5014912;28;20078;-83
2021/05/22 01:32:12;;;;;;;1.60;0.63;;;;;;;9.80;62.12;99470.16;5002990;28;20049;-83
2021/05/22 01:34:41;;;;;;;1.75;0.60;;;;;;;9.74;62.26;99458.13;4945369;28;20042;-82
2021/05/22 01:37:09;;;;;;;5.40;0.98;;;;;;;9.74;62.57;99465.94;5003207;28;20081;-83
2021/05/22 01:39:36;;;;;;;3.22;0.70;;;;;;;9.73;63.00;99472.91;4933480;28;20546;-81
2021/05/22 01:42:03;;;;;;;1.95;0.75;;;;;;;9.71;62.43;99473.84;4990638;28;20046;-83
2021/05/22 01:44:37;;;;;;;2.38;0.63;;;;;;;9.68;62.92;99472.16;4966102;28;20062;-84
2021/05/22 01:47:06;;;;;;;1.80;0.43;;;;;;;9.66;63.12;99465.25;4999655;28;20054;-84
2021/05/22 01:49:34;;;;;;;3.63;0.70;;;;;;;9.62;63.40;99463.63;4998505;28;20056;-83
2021/05/22 01:52:03;;;;;;;2.95;0.98;;;;;;;9.62;63.45;99464.50;4992177;28;20059;-84
2021/05/22 01:54:32;;;;;;;1.42;0.52;;;;;;;9.60;63.35;99461.91;4982190;28;20054;-83
2021/05/22 01:57:04;;;;;;;10.68;1.05;;;;;;;9.60;63.13;99468.88;4994270;28;20064;-84
2021/05/22 01:59:35;;;;;;;2.30;0.80;;;;;;;9.59;63.45;99467.16;4997396;28;20173;-83
2021/05/22 02:02:04;;;;;;;3.20;0.60;;;;;;;9.57;63.25;99475.06;4961637;28;20513;-84
2021/05/22 02:04:37;;;;;;;3.00;0.50;;;;;;;9.55;63.70;99470.75;4998583;28;20055;-83
2021/05/22 02:07:05;;;;;;;3.45;0.52;;;;;;;9.57;63.60;99477.66;4994483;28;20069;-83
2021/05/22 02:09:35;;;;;;;4.22;0.40;;;;;;;9.60;63.05;99467.13;4962825;28;20074;-83
2021/05/22 02:12:06;;;;;;;1.48;0.50;;;;;;;9.64;63.38;99467.06;4953996;28;20120;-83
2021/05/22 02:14:43;;;;;;;3.80;0.93;;;;;;;9.67;63.06;99469.59;4952161;28;20046;-83
2021/05/22 02:17:14;;;;;;;2.13;0.70;;;;;;;9.67;63.15;99466.97;4981947;28;20412;-83
2021/05/22 02:19:44;;;;;;;0.50;0.50;;;;;;;9.67;62.98;99461.75;4953878;28;20719;-83
2021/05/22 02:22:13;;;;;;;2.63;0.55;;;;;;;9.66;62.95;99462.66;4944184;28;20138;-83
2021/05/22 02:24:40;;;;;;;1.02;0.28;;;;;;;9.65;62.99;99453.97;4981425;28;20056;-83
2021/05/22 02:27:08;;;;;;;1.85;0.40;;;;;;;9.64;62.97;99454.84;4979841;28;20046;-83
2021/05/22 02:29:37;;;;;;;1.40;0.50;;;;;;;9.64;63.01;99454.00;4959070;28;20074;-83
2021/05/22 02:32:04;;;;;;;1.58;0.22;;;;;;;9.68;62.98;99464.31;4995011;28;20046;-83
2021/05/22 02:34:37;;;;;;;1.83;0.60;;;;;;;9.72;62.74;99467.72;4975717;28;20145;-84
2021/05/22 02:37:08;;;;;;;1.52;0.60;;;;;;;9.75;62.80;99462.41;4955254;28;20046;-83
2021/05/22 02:39:37;;;;;;;1.13;0.90;;;;;;;9.72;62.89;99468.56;4969467;28;20100;-83
2021/05/22 02:42:05;;;;;;;1.92;0.55;;;;;;;9.67;62.87;99470.44;4999825;28;20105;-83
2021/05/22 02:44:37;;;;;;;4.53;0.35;;;;;;;9.58;63.20;99468.06;4983124;28;20054;-83
2021/05/22 02:47:07;;;;;;;1.42;0.50;;;;;;;9.51;63.35;99469.13;4981645;28;20085;-84
2021/05/22 02:49:41;;;;;;;1.38;0.25;;;;;;;9.43;63.58;99469.28;4999550;28;20191;-83
2021/05/22 02:52:18;;;;;;;0.50;0.40;;;;;;;9.37;64.13;99469.44;4942087;28;20046;-84
2021/05/22 02:54:48;;;;;;;2.15;0.50;;;;;;;9.31;64.15;99470.44;4987863;28;21076;-84
2021/05/22 02:57:18;;;;;;;1.00;0.30;;;;;;;9.25;64.03;99468.81;4988595;28;20133;-83
2021/05/22 02:59:49;;;;;;;3.30;0.40;;;;;;;9.20;64.66;99468.03;4993935;28;20046;-83
2021/05/22 03:02:16;;;;;;;5.05;0.38;;;;;;;9.16;64.48;99465.56;4946755;28;20104;-83
2021/05/22 03:04:45;;;;;;;4.15;0.38;;;;;;;9.11;65.20;99465.66;4993288;28;20062;-83
2021/05/22 03:07:11;;;;;;;1.52;0.30;;;;;;;9.08;65.48;99470.94;4943419;28;20066;-83
2021/05/22 03:09:38;;;;;;;0.95;0.50;;;;;;;9.13;65.50;99469.09;4954285;28;20062;-83
2021/05/22 03:12:11;;;;;;;2.45;0.50;;;;;;;9.11;65.45;99473.47;5000128;28;20054;-85
2021/05/22 03:14:37;;;;;;;0.52;0.35;;;;;;;9.10;65.46;99471.78;4977378;28;20149;-84
2021/05/22 03:17:04;;;;;;;2.80;0.63;;;;;;;9.06;65.88;99463.16;5003332;28;21218;-84
2021/05/22 03:19:39;;;;;;;1.67;0.60;;;;;;;9.03;66.03;99465.81;4996278;28;20077;-83
2021/05/22 03:22:06;;;;;;;4.43;0.47;;;;;;;9.02;66.11;99473.69;4983842;28;20050;-83
2021/05/22 03:24:36;;;;;;;6.93;0.60;;;;;;;8.97;65.74;99471.19;4997416;28;20046;-83
2021/05/22 03:27:04;;;;;;;1.38;0.75;;;;;;;8.95;65.99;99470.34;4982966;28;20050;-83
2021/05/22 03:29:32;;;;;;;2.38;0.47;;;;;;;8.93;66.31;99474.75;4982470;28;20175;-83
2021/05/22 03:31:58;;;;;;;2.17;0.98;;;;;;;8.91;66.80;99468.69;4962427;28;20050;-84
2021/05/22 03:34:26;;;;;;;1.13;0.50;;;;;;;8.93;66.73;99477.38;5000638;28;20046;-84
2021/05/22 03:36:54;;;;;;;0.57;0.40;;;;;;;8.92;66.59;99470.41;4895645;28;20884;-84
2021/05/22 03:39:20;;;;;;;2.63;0.50;;;;;;;8.89;66.50;99463.50;4977253;28;20062;-84
2021/05/22 03:41:48;;;;;;;2.40;0.73;;;;;;;8.87;66.70;99467.91;4953820;28;20050;-83
2021/05/22 03:44:19;;;;;;;2.28;0.50;;;;;;;8.85;66.67;99461.00;4972814;28;20877;-82
2021/05/22 03:46:49;;;;;;;0.55;0.40;;;;;;;8.84;66.92;99464.47;4975455;28;20437;-83
2021/05/22 03:49:17;;;;;;;3.80;0.57;;;;;;;8.83;66.83;99460.19;4945225;28;20051;-82
2021/05/22 03:51:46;;;;;;;2.28;0.40;;;;;;;8.83;66.92;99463.63;4953911;28;20054;-82
2021/05/22 03:54:13;;;;;;;2.63;0.75;;;;;;;8.81;66.97;99460.19;4996348;28;20062;-83
2021/05/22 03:56:39;;;;;;;4.15;0.60;;;;;;;8.81;66.83;99461.94;5001472;28;20084;-83
2021/05/22 03:59:08;;;;;;;0.40;0.30;;;;;;;8.83;67.00;99452.34;4941534;28;20066;-83
2021/05/22 04:01:41;;;;;;;1.85;0.82;;;;;;;8.87;67.21;99454.84;4998636;28;20050;-84
2021/05/22 04:04:08;;;;;;;1.10;0.60;;;;;;;8.97;67.33;99450.31;4955298;28;20054;-82
2021/05/22 04:06:34;;;;;;;1.17;0.30;;;;;;;9.10;66.46;99453.50;4964482;28;20054;-84
2021/05/22 04:09:00;;;;;;;5.05;0.85;;;;;;;9.21;66.00;99454.09;4968498;28;20046;-83
2021/05/22 04:11:27;;;;;;;3.00;0.60;;;;;;;9.31;65.85;99449.53;4981026;28;20055;-85
2021/05/22 04:13:53;;;;;;;3.95;0.77;;;;;;;9.36;65.64;99452.03;4983671;28;20061;-82
2021/05/22 04:16:26;;;;;;;0.95;0.30;;;;;;;9.33;65.92;99445.13;4975920;28;20441;-83
2021/05/22 04:18:52;;;;;;;1.30;0.45;;;;;;;9.31;65.72;99446.06;4959033;28;20145;-83
2021/05/22 04:21:23;;;;;;;1.08;0.70;;;;;;;9.26;66.04;99459.22;4988186;28;20051;-81
2021/05/22 04:23:49;;;;;;;2.20;0.60;;;;;;;9.19;66.31;99458.53;4996775;28;20054;-82
2021/05/22 04:26:18;;;;;;;2.00;0.65;;;;;;;9.18;66.40;99453.34;4994815;28;20054;-82
2021/05/22 04:28:45;;;;;;;1.60;0.70;;;;;;;9.17;66.75;99449.00;4961470;28;20193;-84
2021/05/22 04:31:15;;;;;;;2.58;0.50;;;;;;;9.19;66.78;99450.69;4965952;28;20046;-84
2021/05/22 04:33:41;;;;;;;9.52;0.60;;;;;;;9.22;66.52;99455.81;4974386;28;20421;-82
2021/05/22 04:36:08;;;;;;;4.35;1.13;;;;;;;9.25;66.40;99455.75;4981529;28;20053;-82
2021/05/22 04:38:37;;;;;;;1.80;0.75;;;;;;;9.27;66.36;99456.59;4989195;28;20158;-84
2021/05/22 04:41:03;;;;;;;3.38;0.43;;;;;;;9.32;66.03;99451.28;4998095;28;20090;-85
2021/05/22 04:43:30;;;;;;;5.75;0.70;;;;;;;9.39;66.08;99457.19;4969255;28;20050;-82
2021/05/22 04:45:57;;;;;;;2.30;0.25;;;;;;;9.45;66.15;99462.25;4982557;28;20046;-80
2021/05/22 04:48:26;;;;;;;1.58;0.70;;;;;;;9.51;66.02;99462.13;4986175;28;20457;-82
2021/05/22 04:50:54;;;;;;;3.03;0.50;;;;;;;9.56;65.62;99457.66;4993919;28;20113;-81
2021/05/22 04:53:26;;;;;;;2.95;0.65;;;;;;;9.61;65.58;99447.09;4946459;28;20038;-83
2021/05/22 04:55:53;;;;;;;2.90;0.93;;;;;;;9.65;65.44;99459.19;4981103;28;20046;-84
2021/05/22 04:58:19;;;;;;;3.90;0.60;;;;;;;9.71;65.54;99464.28;5016383;28;20047;-83
2021/05/22 05:00:51;;;;;;;2.38;0.55;;;;;;;9.77;65.23;99460.63;4989555;28;20062;-84
2021/05/22 05:03:17;;;;;;;1.13;0.40;;;;;;;9.82;64.99;99457.91;4987186;28;20046;-84
2021/05/22 05:05:45;;;;;;;3.13;0.90;;;;;;;9.88;65.09;99452.50;5000550;28;20481;-84
2021/05/22 05:08:14;;;;;;;3.72;1.05;;;;;;;9.93;64.68;99463.72;4999209;28;20073;-84
2021/05/22 05:10:43;;;;;;;1.98;0.70;;;;;;;9.99;64.06;99463.56;5000398;28;20072;-85
2021/05/22 05:13:16;;;;;;;0.70;0.40;;;;;;;10.04;64.07;99466.91;4971758;28;20057;-84
2021/05/22 05:15:44;;;;;;;2.97;0.60;;;;;;;10.10;64.20;99456.31;4950441;28;20047;-84
2021/05/22 05:18:12;;;;;;;2.60;1.10;;;;;;;10.14;64.84;99464.06;4993526;28;20046;-82
2021/05/22 05:20:43;;;;;;;2.88;0.40;;;;;;;10.20;64.14;99456.06;4989990;28;20034;-82
2021/05/22 05:23:09;;;;;;;2.63;0.70;;;;;;;10.24;64.06;99462.94;5002165;28;20069;-82
2021/05/22 05:25:35;;;;;;;1.55;0.52;;;;;;;10.30;64.10;99462.78;4985560;28;20177;-82
2021/05/22 05:28:06;;;;;;;3.08;0.75;;;;;;;10.33;63.90;99459.22;4985004;28;20202;-84
2021/05/22 05:30:42;;;;;;;0.80;0.60;;;;;;;10.36;63.53;99452.16;4999964;28;20060;-82
2021/05/22 05:33:11;;;;;;;1.80;0.70;;;;;;;10.42;63.52;99451.16;4997258;28;20153;-83
2021/05/22 05:35:37;;;;;;;2.00;0.40;;;;;;;10.48;63.08;99450.09;4987512;28;20153;-84
2021/05/22 05:38:03;;;;;;;2.92;0.88;;;;;;;10.53;63.10;99448.22;4976930;28;20089;-83
2021/05/22 05:40:29;;;;;;;0.90;0.50;;;;;;;10.58;62.67;99452.41;4956774;28;20039;-83
2021/05/22 05:42:56;;;;;;;3.53;0.88;;;;;;;10.65;62.65;99447.00;4936150;28;21453;-83
2021/05/22 05:45:22;;;;;;;3.35;0.43;;;;;;;10.70;62.30;99446.00;4983983;28;20050;-84
2021/05/22 05:48:01;;;;;;;5.75;1.27;;;;;;;10.77;61.50;99454.53;4967014;28;20056;-85
2021/05/22 05:50:27;;;;;;;4.45;0.63;;;;;;;10.84;61.47;99458.66;4967078;28;20057;-84
2021/05/22 05:52:54;;;;;;;3.95;0.52;;;;;;;10.92;61.00;99440.97;4948538;28;20056;-83
2021/05/22 05:55:20;;;;;;;2.38;0.70;;;;;;;10.96;60.24;99460.06;4999727;28;20389;-83
2021/05/22 05:57:49;;;;;;;4.03;1.02;;;;;;;11.00;59.98;99440.75;4974664;28;20058;-84
2021/05/22 06:00:17;;;;;;;1.52;0.50;;;;;;;11.02;59.58;99456.41;4911062;28;20149;-84
2021/05/22 06:02:45;;;;;;;2.33;0.80;;;;;;;11.04;59.28;99437.13;4970061;28;20075;-82
2021/05/22 06:05:12;;;;;;;2.53;0.80;;;;;;;11.09;59.30;99447.44;4956270;28;20531;-82
2021/05/22 06:07:45;;;;;;;3.22;0.80;;;;;;;11.24;58.58;99467.09;4971924;28;20140;-83
2021/05/22 06:10:13;;;;;;;2.03;1.60;;;;;;;11.43;58.56;99464.75;4976484;28;20174;-84
2021/05/22 06:12:41;;;;;;;2.95;0.50;;;;;;;11.64;57.59;99467.59;5003150;28;20098;-83
2021/05/22 06:15:21;;;;;;;6.60;1.00;;;;;;;11.89;57.05;99467.66;4987747;28;22906;-83
2021/05/22 06:17:48;;;;;;;10.02;1.98;;;;;;;12.17;55.41;99464.97;4968714;28;25503;-81
2021/05/22 06:20:14;;;;;;;2.08;0.65;;;;;;;12.37;55.19;99448.53;5005531;28;20584;-82
2021/05/22 06:22:42;;;;;;;1.08;0.60;;;;;;;12.55;54.72;99451.41;5000092;28;20073;-82
2021/05/22 06:25:12;;;;;;;1.00;0.50;;;;;;;12.71;54.52;99467.44;4967281;28;20057;-84
2021/05/22 06:27:46;;;;;;;1.98;1.35;;;;;;;12.79;54.00;99446.13;4962219;28;20064;-84
2021/05/22 06:30:14;;;;;;;3.80;0.80;;;;;;;12.80;54.12;99443.47;4978741;28;20133;-83
2021/05/22 06:32:40;;;;;;;1.75;1.27;;;;;;;12.76;53.79;99441.00;4993641;28;20501;-82
2021/05/22 06:35:07;;;;;;;2.97;0.82;;;;;;;12.80;53.57;99455.75;4977375;28;20057;-83
2021/05/22 06:37:33;;;;;;;1.85;0.70;;;;;;;12.83;53.79;99453.00;4987678;28;20081;-83
2021/05/22 06:40:00;;;;;;;3.80;0.65;;;;;;;12.88;53.82;99456.28;4985416;28;20131;-84
2021/05/22 06:42:31;;;;;;;9.60;1.38;;;;;;;12.87;53.65;99447.56;5003417;28;20077;-83
2021/05/22 06:45:02;;;;;;;2.20;0.65;;;;;;;12.79;52.96;99454.00;4966673;28;20046;-85
2021/05/22 06:47:33;;;;;;;3.20;0.93;;;;;;;12.76;52.86;99438.38;4982157;28;20057;-81
2021/05/22 06:50:00;;;;;;;6.22;0.85;;;;;;;12.76;52.94;99449.72;4973952;28;20065;-83
2021/05/22 06:52:27;;;;;;;1.98;0.40;;;;;;;12.81;53.45;99434.66;4955186;28;20074;-85
2021/05/22 06:54:54;;;;;;;3.78;0.55;;;;;;;12.90;53.47;99457.94;4958243;28;20046;-84
2021/05/22 06:57:29;;;;;;;2.95;1.02;;;;;;;12.95;52.70;99449.91;4960024;28;20046;-84
2021/05/22 06:59:57;;;;;;;4.95;0.85;;;;;;;12.94;52.71;99453.44;4987487;28;20141;-83
2021/05/22 07:02:23;;;;;;;3.33;1.67;;;;;;;12.90;53.15;99452.69;4978899;28;20050;-83
2021/05/22 07:04:49;;;;;;;5.10;0.80;;;;;;;12.74;53.45;99457.69;4950261;28;20555;-82
2021/05/22 07:07:18;;;;;;;2.83;0.80;;;;;;;12.62;54.17;99463.41;4973336;28;20050;-81
2021/05/22 07:09:47;;;;;;;5.90;0.93;;;;;;;12.60;54.11;99465.22;4987300;28;20130;-84
2021/05/22 07:12:15;;;;;;;4.93;0.90;;;;;;;12.56;53.94;99453.94;4968168;28;20086;-83
2021/05/22 07:14:42;;;;;;;3.75;0.80;;;;;;;12.56;54.47;99456.59;4953471;28;20057;-82
2021/05/22 07:17:14;;;;;;;3.55;0.47;;;;;;;12.55;54.41;99460.13;5006218;28;20046;-82
2021/05/22 07:19:43;;;;;;;3.15;0.82;;;;;;;12.50;54.36;99462.06;4975276;28;21484;-83
2021/05/22 07:22:10;;;;;;;4.57;0.65;;;;;;;12.46;54.77;99464.84;4952231;28;20050;-82
2021/05/22 07:24:36;;;;;;;4.68;0.93;;;;;;;12.39;55.07;99459.81;4984400;28;20049;-84
2021/05/22 07:27:03;;;;;;;1.70;0.65;;;;;;;12.39;55.34;99462.44;4970479;28;20046;-83
2021/05/22 07:29:33;;;;;;;8.00;1.05;;;;;;;12.47;54.87;99461.31;4981126;28;20934;-82
2021/05/22 07:32:00;;;;;;;0.63;0.60;;;;;;;12.61;54.16;99447.72;4974244;28;20469;-84
2021/05/22 07:34:27;;;;;;;7.40;1.55;;;;;;;12.92;53.73;99455.28;4983900;28;20056;-84
2021/05/22 07:36:54;;;;;;;4.07;1.58;;;;;;;13.33;52.73;99447.56;4953639;28;20523;-82
2021/05/22 07:39:22;;;;;;;3.97;0.77;;;;;;;13.53;52.09;99451.19;4973562;28;20038;-81
2021/05/22 07:41:51;;;;;;;4.90;0.65;;;;;;;13.67;51.96;99469.03;4963431;28;20077;-82
2021/05/22 07:44:17;;;;;;;1.48;0.50;;;;;;;13.67;51.17;99456.75;4997779;28;20088;-85
2021/05/22 07:46:43;;;;;;;4.20;0.90;;;;;;;13.73;51.89;99459.13;4977709;28;20454;-83
2021/05/22 07:49:10;;;;;;;2.03;0.55;;;;;;;13.88;51.39;99454.16;4980913;28;21194;-82
2021/05/22 07:51:40;;;;;;;1.48;0.80;;;;;;;13.99;51.32;99451.09;4973942;28;20065;-85
2021/05/22 07:54:10;;;;;;;2.78;0.50;;;;;;;13.93;51.43;99460.06;5003474;28;20548;-82
2021/05/22 07:56:37;;;;;;;3.15;0.82;;;;;;;13.93;51.56;99456.59;4980093;28;20060;-84
2021/05/22 07:59:06;;;;;;;4.00;0.82;;;;;;;14.06;51.92;99455.16;4990093;28;20136;-83
2021/05/22 08:01:35;;;;;;;1.88;0.35;;;;;;;14.05;51.29;99450.81;4942825;28;20054;-84
2021/05/22 08:04:02;;;;;;;2.08;0.60;;;;;;;14.19;51.01;99442.31;4995329;28;20050;-85
2021/05/22 08:06:28;;;;;;;3.85;0.63;;;;;;;14.22;49.51;99443.06;4950604;28;20049;-84
2021/05/22 08:08:58;;;;;;;4.95;0.70;;;;;;;14.79;49.39;99449.38;4948079;28;20049;-84
2021/05/22 08:11:24;;;;;;;1.48;0.40;;;;;;;15.63;47.76;99454.19;4973414;28;20063;-85
2021/05/22 08:13:50;;;;;;;3.40;0.52;;;;;;;16.35;45.40;99441.81;4869200;28;20085;-85
2021/05/22 08:16:19;;;;;;;3.50;0.70;;;;;;;16.32;45.20;99439.31;4938502;28;20551;-85
2021/05/22 08:18:49;;;;;;;2.25;0.50;;;;;;;16.30;45.49;99441.19;4948766;28;20062;-84
2021/05/22 08:21:18;;;;;;;1.45;0.65;;;;;;;16.55;44.68;99430.19;4961579;28;20124;-84
2021/05/22 08:23:50;;;;;;;2.78;0.65;;;;;;;16.50;43.92;99446.28;4956464;28;20042;-83
2021/05/22 08:26:19;;;;;;;1.98;0.20;;;;;;;16.31;44.23;99429.69;4931185;28;20054;-83
2021/05/22 08:28:55;;;;;;;2.60;0.63;;;;;;;15.85;44.97;99446.09;5001202;28;20054;-85
2021/05/22 08:31:24;;;;;;;3.90;0.43;;;;;;;15.39;45.83;99439.47;4964272;28;20120;-83
2021/05/22 08:33:53;;;;;;;3.55;0.63;;;;;;;14.74;47.64;99443.47;4977474;28;20133;-85
2021/05/22 08:36:34;;;;;;;1.13;0.50;;;;;;;14.31;48.21;99454.94;4956384;28;20046;-85
2021/05/22 08:39:01;;;;;;;3.45;1.02;;;;;;;13.89;49.20;99453.22;4974693;28;20101;-84
2021/05/22 08:41:29;;;;;;;4.47;1.10;;;;;;;13.63;49.66;99456.94;4998502;28;20060;-85
2021/05/22 08:43:58;;;;;;;13.80;7.70;;;;;;;13.44;51.08;99457.69;5002736;28;20052;-85
2021/05/22 08:46:26;;;;;;;5.63;2.08;;;;;;;13.22;51.45;99465.53;4977159;28;20057;-87
2021/05/22 08:48:56;;;;;;;5.70;3.10;;;;;;;13.07;52.24;99470.47;4932623;28;20054;-86
2021/05/22 08:51:25;;;;;;;3.70;1.50;;;;;;;12.99;53.01;99471.66;4964735;28;20386;-83
2021/05/22 08:53:55;;;;;;;12.50;5.82;;;;;;;13.00;52.94;99476.88;5000689;28;20061;-85
2021/05/22 08:56:22;;;;;;;5.10;2.88;;;;;;;13.03;52.75;99462.75;4970045;28;20050;-85
2021/05/22 08:58:55;;;;;;;5.43;1.90;;;;;;;13.08;52.60;99466.06;4983269;28;20054;-85
2021/05/22 09:01:27;;;;;;;4.38;1.52;;;;;;;13.15;51.69;99471.94;4924429;28;20046;-84
2021/05/22 09:04:08;;;;;;;1.73;1.10;;;;;;;13.20;51.66;99476.09;4956859;28;20043;-85
2021/05/22 09:07:01;;;;;;;4.05;1.75;;;;;;;13.23;51.99;99477.75;4923672;28;20069;-87
2021/05/22 09:09:44;;;;;;;0.70;0.50;;;;;;;13.17;51.04;99489.34;4958303;28;22750;-86
2021/05/22 09:12:11;;;;;;;0.40;0.40;;;;;;;13.16;51.36;99490.25;4936035;28;20527;-86
2021/05/22 09:14:56;;;;;;;2.58;0.65;;;;;;;13.04;51.97;99507.34;5006897;28;21011;-85
2021/05/22 09:17:28;;;;;;;0.95;0.40;;;;;;;12.93;52.61;99495.53;4928415;28;20140;-83
2021/05/22 09:20:23;;;;;;;1.60;0.63;;;;;;;12.97;52.71;99499.75;4987893;28;21460;-86
2021/05/22 09:23:15;;;;;;;1.10;0.63;;;;;;;13.27;52.29;99491.63;4957871;28;20554;-84
2021/05/22 09:25:56;;;;;;;0.52;0.30;;;;;;;13.63;51.33;99504.28;4959547;28;20061;-87
2021/05/22 09:28:39;;;;;;;1.10;0.70;;;;;;;13.98;50.14;99479.16;4936777;28;20049;-83
2021/05/22 09:31:11;;;;;;;3.08;0.30;;;;;;;14.33;49.25;99491.75;4876307;28;20080;-86
2021/05/22 09:33:39;;;;;;;3.22;0.57;;;;;;;14.72;48.46;99493.59;4930199;28;20046;-85
2021/05/22 09:36:17;;;;;;;1.52;0.40;;;;;;;14.67;48.29;99492.94;4990362;28;22416;-84
2021/05/22 09:38:52;;;;;;;0.47;0.40;;;;;;;14.60;48.76;99488.81;4978539;28;20537;-83
2021/05/22 09:41:43;;;;;;;3.08;0.50;;;;;;;14.23;49.60;99493.91;4997844;28;20053;-86
2021/05/22 09:44:17;;;;;;;1.50;0.43;;;;;;;14.04;50.05;99497.31;4994970;28;20845;-85
2021/05/22 09:46:54;;;;;;;2.40;0.30;;;;;;;13.85;50.73;99504.25;4936423;28;20053;-84
2021/05/22 09:49:32;;;;;;;3.33;0.40;;;;;;;13.70;51.49;99498.72;4993448;28;20044;-85
2021/05/22 09:52:15;;;;;;;1.33;0.32;;;;;;;13.56;51.97;99494.00;4986417;28;20057;-86
2021/05/22 09:54:58;;;;;;;1.13;0.57;;;;;;;13.54;52.09;99506.34;5021535;28;20097;-84
2021/05/22 09:57:35;;;;;;;1.48;0.28;;;;;;;13.42;52.49;99498.94;5066893;28;20072;-85
2021/05/22 10:00:20;;;;;;;2.15;0.30;;;;;;;13.40;53.28;99496.38;5029236;28;20040;-86
2021/05/22 10:02:58;;;;;;;1.73;0.30;;;;;;;13.37;52.84;99507.00;5011458;28;20068;-84
2021/05/22 10:05:26;;;;;;;1.17;0.38;;;;;;;13.35;53.42;99510.56;5046055;28;20076;-86
2021/05/22 10:07:55;;;;;;;1.00;0.47;;;;;;;13.37;53.71;99516.66;5006486;28;20082;-86
2021/05/22 10:10:49;;;;;;;0.52;0.52;;;;;;;13.35;53.74;99515.81;5004396;28;20049;-86
2021/05/22 10:13:21;;;;;;;1.52;0.25;;;;;;;13.39;53.61;99514.84;4994608;28;20046;-85
2021/05/22 10:15:55;;;;;;;1.08;0.50;;;;;;;13.36;54.38;99528.06;4992633;28;20134;-84
2021/05/22 10:18:26;;;;;;;2.03;0.28;;;;;;;13.28;54.56;99527.50;5004567;28;20096;-84
2021/05/22 10:20:54;;;;;;;2.17;0.63;;;;;;;13.20;55.13;99526.00;4997702;28;20062;-85
2021/05/22 10:23:21;;;;;;;1.55;0.50;;;;;;;13.07;55.72;99541.41;5013465;28;20048;-84
2021/05/22 10:25:50;;;;;;;1.30;0.25;;;;;;;12.95;56.91;99533.13;5012060;28;20141;-85
2021/05/22 10:28:17;;;;;;;1.48;0.40;;;;;;;12.82;57.92;99538.81;5028376;28;20084;-85
2021/05/22 10:30:44;;;;;;;2.60;0.30;;;;;;;12.71;58.61;99543.56;5023206;28;20057;-81
2021/05/22 10:33:13;;;;;;;1.08;0.75;;;;;;;12.72;59.29;99538.28;5011345;28;20076;-85
2021/05/22 10:35:50;;;;;;;1.30;0.50;;;;;;;12.70;59.26;99549.75;5000939;28;20088;-84
2021/05/22 10:38:42;;;;;;;2.80;0.68;;;;;;;12.73;59.62;99547.03;5027670;28;20044;-84
2021/05/22 10:41:37;;;;;;;3.50;0.60;;;;;;;12.72;59.42;99554.06;4914033;28;1694935;-83
2021/05/22 10:44:06;;;;;;;3.03;0.47;;;;;;;12.65;59.22;99555.16;5024045;28;20862;-83
2021/05/22 10:47:09;;;;;;;0.93;0.63;;;;;;;12.61;58.83;99536.97;5006157;28;20112;-83
2021/05/22 10:50:04;;;;;;;1.90;0.30;;;;;;;12.63;58.54;99548.25;5006118;28;20050;-83
2021/05/22 10:52:36;;;;;;;1.35;0.20;;;;;;;12.70;58.21;99555.88;5003500;28;20497;-83
2021/05/22 10:55:12;;;;;;;2.17;0.40;;;;;;;12.56;58.61;99555.50;5002838;28;20058;-85
2021/05/22 10:57:54;;;;;;;0.95;0.30;;;;;;;12.50;58.79;99560.94;4971720;28;20230;-84
2021/05/22 11:00:26;;;;;;;1.55;1.20;;;;;;;12.51;58.95;99565.28;5004936;28;20060;-84
2021/05/22 11:03:21;;;;;;;1.38;0.20;;;;;;;12.43;58.74;99556.84;5004933;28;20134;-82
2021/05/22 11:05:47;;;;;;;0.80;0.80;;;;;;;12.43;59.05;99560.31;4971750;28;20054;-83
2021/05/22 11:08:13;;;;;;;1.52;0.20;;;;;;;12.45;59.41;99560.25;4991539;28;20062;-84
2021/05/22 11:10:49;;;;;;;0.65;0.30;;;;;;;12.41;59.31;99575.22;4991433;28;20146;-83
2021/05/22 11:13:29;;;;;;;0.65;0.28;;;;;;;12.34;59.34;99560.63;5020944;28;20298;-85
2021/05/22 11:16:02;;;;;;;1.27;0.30;;;;;;;12.38;59.62;99578.84;4992464;28;20046;-86
2021/05/22 11:19:00;;;;;;;4.03;0.73;;;;;;;12.56;59.46;99574.72;5001617;28;20049;-83
2021/05/22 11:21:27;;;;;;;3.15;0.50;;;;;;;12.63;59.21;99550.88;4979318;28;20168;-85
2021/05/22 11:23:59;;;;;;;1.13;0.30;;;;;;;12.62;59.17;99564.91;4990518;28;20042;-85
2021/05/22 11:26:45;;;;;;;0.43;0.30;;;;;;;12.67;59.44;99573.47;5026112;28;20046;-84
2021/05/22 11:29:51;;;;;;;1.42;0.20;;;;;;;12.81;59.40;99567.75;4996691;28;20074;-85
2021/05/22 11:32:52;;;;;;;0.75;0.40;;;;;;;12.97;59.08;99579.44;4998133;28;20056;-86
2021/05/22 11:35:44;;;;;;;2.33;0.50;;;;;;;13.14;58.49;99584.06;5009132;28;20045;-85
2021/05/22 11:38:18;;;;;;;1.15;1.02;;;;;;;13.24;57.97;99582.81;5026481;28;20092;-85
2021/05/22 11:40:44;;;;;;;1.95;0.88;;;;;;;13.26;57.99;99581.88;4991442;28;20051;-85
2021/05/22 11:43:14;;;;;;;0.40;0.15;;;;;;;13.04;58.12;99582.69;4991033;28;20133;-85
2021/05/22 11:46:08;;;;;;;0.65;0.20;;;;;;;12.94;58.52;99576.91;5005831;28;20062;-85
2021/05/22 11:48:40;;;;;;;1.25;0.65;;;;;;;12.88;58.57;99578.00;4989493;28;20050;-85
2021/05/22 11:51:26;;;;;;;0.28;0.17;;;;;;;12.85;58.39;99580.75;5005475;28;20093;-84
2021/05/22 11:54:05;;;;;;;0.10;0.10;;;;;;;12.72;59.53;99584.69;5006405;28;20053;-84
2021/05/22 11:56:43;;;;;;;0.45;0.30;;;;;;;12.68;60.04;99589.19;5018185;28;20096;-85
2021/05/22 11:59:18;;;;;;;0.28;0.20;;;;;;;12.54;60.41;99584.44;5021451;28;20061;-85
2021/05/22 12:01:48;;;;;;;0.70;0.65;;;;;;;12.51;60.16;99596.78;4970543;28;20057;-84
2021/05/22 12:04:18;;;;;;;0.40;0.40;;;;;;;12.49;60.54;99591.59;5004087;28;20065;-83
2021/05/22 12:06:48;;;;;;;0.47;0.20;;;;;;;12.38;59.70;99578.84;5006432;28;20050;-84